createdAt,value
2023-02-02T00:00:11.071Z,101120.17
2023-02-02T00:01:11.069Z,101118.51
2023-02-02T00:02:11.102Z,101117.91
2023-02-02T00:03:11.075Z,101116.43
2023-02-02T00:04:14.198Z,101116.12
2023-02-02T00:05:11.078Z,101120.29
2023-02-02T00:06:11.084Z,101124.50
2023-02-02T00:07:11.079Z,101126.27
2023-02-02T00:08:11.074Z,101125.67
2023-02-02T00:09:11.076Z,101125.32
2023-02-02T00:10:11.081Z,101117.13
2023-02-02T00:11:11.075Z,101117.59
2023-02-02T00:12:11.082Z,101116.21
2023-02-02T00:13:11.073Z,101113.16
2023-02-02T00:14:11.076Z,101108.43
2023-02-02T00:15:11.078Z,101102.48
2023-02-02T00:16:19.102Z,101101.67
2023-02-02T00:17:11.074Z,101099.94
2023-02-02T00:18:11.096Z,101100.41
2023-02-02T00:19:15.084Z,101103.80
2023-02-02T00:20:11.082Z,101101.56
2023-02-02T00:21:11.084Z,101101.10
2023-02-02T00:22:11.080Z,101097.58
2023-02-02T00:23:11.078Z,101100.78
2023-02-02T00:24:11.084Z,101104.12
2023-02-02T00:25:11.085Z,101098.56
2023-02-02T00:26:11.086Z,101102.56
2023-02-02T00:27:11.087Z,101099.91
2023-02-02T00:28:11.074Z,101104.09
2023-02-02T00:29:14.076Z,101103.62
2023-02-02T00:30:11.083Z,101107.05
2023-02-02T00:31:11.088Z,101111.35
2023-02-02T00:32:11.081Z,101112.00
2023-02-02T00:33:11.085Z,101111.09
2023-02-02T00:34:13.090Z,101108.28
2023-02-02T00:35:11.080Z,101115.05
2023-02-02T00:36:11.084Z,101109.24
2023-02-02T00:37:11.084Z,101114.46
2023-02-02T00:38:11.083Z,101113.58
2023-02-02T00:39:11.088Z,101109.60
2023-02-02T00:40:12.142Z,101110.25
2023-02-02T00:41:11.081Z,101104.47
2023-02-02T00:42:12.082Z,101109.32
2023-02-02T00:43:11.089Z,101103.89
2023-02-02T00:44:15.078Z,101105.10
2023-02-02T00:45:15.085Z,101107.14
2023-02-02T00:46:14.086Z,101108.58
2023-02-02T00:47:11.083Z,101110.31
2023-02-02T00:48:11.074Z,101114.00
2023-02-02T00:49:11.086Z,101112.78
2023-02-02T00:50:11.091Z,101113.95
2023-02-02T00:51:11.091Z,101108.63
2023-02-02T00:52:11.086Z,101112.85
2023-02-02T00:53:11.079Z,101107.00
2023-02-02T00:54:11.081Z,101114.27
2023-02-02T00:55:11.093Z,101113.34
2023-02-02T00:56:11.079Z,101117.37
2023-02-02T00:57:13.083Z,101117.70
2023-02-02T00:58:11.087Z,101113.28
2023-02-02T00:59:11.078Z,101114.64
2023-02-02T01:00:15.065Z,101115.70
2023-02-02T01:01:17.112Z,101113.34
2023-02-02T01:02:13.144Z,101111.25
2023-02-02T01:03:11.063Z,101111.57
2023-02-02T01:04:11.064Z,101107.70
2023-02-02T01:05:13.074Z,101114.12
2023-02-02T01:06:11.071Z,101114.83
2023-02-02T01:07:11.062Z,101112.09
2023-02-02T01:08:11.063Z,101112.28
2023-02-02T01:09:11.060Z,101113.66
2023-02-02T01:10:13.065Z,101119.36
2023-02-02T01:11:11.073Z,101122.23
2023-02-02T01:12:11.061Z,101121.54
2023-02-02T01:13:11.062Z,101123.62
2023-02-02T01:14:11.070Z,101122.38
2023-02-02T01:15:11.065Z,101123.17
2023-02-02T01:16:11.125Z,101123.05
2023-02-02T01:17:11.071Z,101119.62
2023-02-02T01:18:11.071Z,101120.37
2023-02-02T01:19:12.062Z,101119.74
2023-02-02T01:20:15.063Z,101117.99
2023-02-02T01:21:11.085Z,101117.45
2023-02-02T01:22:11.068Z,101119.20
2023-02-02T01:23:11.071Z,101122.16
2023-02-02T01:24:11.066Z,101117.45
2023-02-02T01:25:11.066Z,101119.86
2023-02-02T01:26:11.065Z,101125.41
2023-02-02T01:27:11.065Z,101125.45
2023-02-02T01:28:11.066Z,101123.88
2023-02-02T01:29:11.072Z,101130.14
2023-02-02T01:30:11.066Z,101127.88
2023-02-02T01:31:12.108Z,101127.99
2023-02-02T01:32:11.066Z,101128.51
2023-02-02T01:33:11.062Z,101132.56
2023-02-02T01:34:11.060Z,101131.32
2023-02-02T01:35:11.066Z,101131.11
2023-02-02T01:36:12.063Z,101127.95
2023-02-02T01:37:11.062Z,101126.76
2023-02-02T01:38:11.064Z,101121.75
2023-02-02T01:39:11.064Z,101122.20
2023-02-02T01:40:11.072Z,101125.18
2023-02-02T01:41:14.064Z,101122.94
2023-02-02T01:42:14.075Z,101124.38
2023-02-02T01:43:21.064Z,101117.36
2023-02-02T01:44:19.064Z,101116.80
2023-02-02T01:45:19.063Z,101113.47
2023-02-02T01:46:18.072Z,101109.44
2023-02-02T01:47:11.069Z,101109.21
2023-02-02T01:48:11.062Z,101102.80
2023-02-02T01:49:15.063Z,101103.15
2023-02-02T01:50:11.075Z,101105.04
2023-02-02T01:51:13.062Z,101102.48
2023-02-02T01:52:11.067Z,101100.17
2023-02-02T01:53:11.072Z,101095.71
2023-02-02T01:54:14.065Z,101101.46
2023-02-02T01:55:14.067Z,101099.66
2023-02-02T01:56:12.078Z,101102.57
2023-02-02T01:57:17.073Z,101099.09
2023-02-02T01:58:19.065Z,101088.89
2023-02-02T01:59:11.061Z,101086.84
2023-02-02T02:00:11.077Z,101090.34
2023-02-02T02:01:11.152Z,101086.66
2023-02-02T02:02:11.108Z,101086.92
2023-02-02T02:03:12.067Z,101082.20
2023-02-02T02:04:11.065Z,101083.09
2023-02-02T02:05:11.064Z,101079.54
2023-02-02T02:06:14.176Z,101081.16
2023-02-02T02:07:11.065Z,101083.21
2023-02-02T02:08:17.062Z,101089.06
2023-02-02T02:09:11.065Z,101091.65
2023-02-02T02:10:11.077Z,101094.02
2023-02-02T02:11:11.070Z,101096.62
2023-02-02T02:12:16.065Z,101097.66
2023-02-02T02:13:11.073Z,101098.16
2023-02-02T02:14:15.072Z,101101.21
2023-02-02T02:15:15.061Z,101105.50
2023-02-02T02:16:23.112Z,101105.59
2023-02-02T02:17:19.079Z,101103.42
2023-02-02T02:18:21.067Z,101102.49
2023-02-02T02:19:19.068Z,101100.46
2023-02-02T02:20:25.068Z,101105.22
2023-02-02T02:21:25.083Z,101103.13
2023-02-02T02:22:17.065Z,101101.75
2023-02-02T02:23:23.083Z,101102.12
2023-02-02T02:24:25.074Z,101105.13
2023-02-02T02:25:23.360Z,101106.21
2023-02-02T02:26:25.113Z,101107.54
2023-02-02T02:27:19.065Z,101103.87
2023-02-02T02:28:21.075Z,101103.22
2023-02-02T02:29:21.067Z,101105.88
2023-02-02T02:30:19.082Z,101106.34
2023-02-02T02:31:21.137Z,101105.16
2023-02-02T02:32:21.064Z,101113.28
2023-02-02T02:33:23.062Z,101114.64
2023-02-02T02:34:19.069Z,101113.18
2023-02-02T02:35:19.072Z,101116.87
2023-02-02T02:36:19.069Z,101111.20
2023-02-02T02:37:21.068Z,101114.49
2023-02-02T02:38:23.067Z,101112.89
2023-02-02T02:39:21.071Z,101109.81
2023-02-02T02:40:19.067Z,101106.80
2023-02-02T02:41:19.077Z,101106.27
2023-02-02T02:42:15.072Z,101102.70
2023-02-02T02:43:19.062Z,101104.38
2023-02-02T02:44:12.068Z,101104.18
2023-02-02T02:45:11.067Z,101099.27
2023-02-02T02:46:11.102Z,101102.47
2023-02-02T02:47:11.067Z,101099.55
2023-02-02T02:48:11.072Z,101101.22
2023-02-02T02:49:11.072Z,101097.80
2023-02-02T02:50:11.067Z,101105.60
2023-02-02T02:51:15.071Z,101099.18
2023-02-02T02:52:11.067Z,101102.54
2023-02-02T02:53:15.076Z,101099.84
2023-02-02T02:54:12.076Z,101103.17
2023-02-02T02:55:11.094Z,101103.01
2023-02-02T02:56:23.076Z,101099.23
2023-02-02T02:57:19.070Z,101098.96
2023-02-02T02:58:15.076Z,101098.57
2023-02-02T02:59:21.075Z,101094.56
2023-02-02T03:00:19.073Z,101093.62
2023-02-02T03:01:21.115Z,101090.27
2023-02-02T03:02:21.101Z,101095.64
2023-02-02T03:03:19.077Z,101092.09
2023-02-02T03:04:21.083Z,101094.57
2023-02-02T03:05:21.070Z,101093.96
2023-02-02T03:06:20.082Z,101089.34
2023-02-02T03:07:19.068Z,101092.68
2023-02-02T03:08:18.073Z,101085.91
2023-02-02T03:09:19.072Z,101086.77
2023-02-02T03:10:13.071Z,101091.77
2023-02-02T03:11:12.092Z,101089.28
2023-02-02T03:12:11.080Z,101094.16
2023-02-02T03:13:11.071Z,101088.36
2023-02-02T03:14:13.078Z,101087.86
2023-02-02T03:15:11.076Z,101087.75
2023-02-02T03:16:11.193Z,101087.19
2023-02-02T03:17:11.067Z,101091.88
2023-02-02T03:18:11.074Z,101088.69
2023-02-02T03:19:11.075Z,101096.83
2023-02-02T03:20:11.069Z,101094.96
2023-02-02T03:21:11.082Z,101099.46
2023-02-02T03:22:11.085Z,101098.05
2023-02-02T03:23:11.068Z,101098.13
2023-02-02T03:24:11.077Z,101096.96
2023-02-02T03:25:11.077Z,101099.31
2023-02-02T03:26:11.069Z,101098.64
2023-02-02T03:27:11.074Z,101097.36
2023-02-02T03:28:11.081Z,101097.18
2023-02-02T03:29:11.074Z,101102.98
2023-02-02T03:30:12.083Z,101098.69
2023-02-02T03:31:11.263Z,101101.44
2023-02-02T03:32:11.072Z,101101.66
2023-02-02T03:33:11.072Z,101101.70
2023-02-02T03:34:11.074Z,101101.89
2023-02-02T03:35:11.072Z,101102.44
2023-02-02T03:36:11.074Z,101106.06
2023-02-02T03:37:11.075Z,101108.55
2023-02-02T03:38:11.068Z,101109.96
2023-02-02T03:39:11.077Z,101109.77
2023-02-02T03:40:11.072Z,101107.85
2023-02-02T03:41:11.075Z,101109.72
2023-02-02T03:42:11.076Z,101110.11
2023-02-02T03:43:11.076Z,101108.89
2023-02-02T03:44:11.074Z,101107.13
2023-02-02T03:45:11.072Z,101107.60
2023-02-02T03:46:11.172Z,101105.59
2023-02-02T03:47:11.077Z,101111.00
2023-02-02T03:48:11.081Z,101105.36
2023-02-02T03:49:11.090Z,101109.52
2023-02-02T03:50:11.076Z,101110.07
2023-02-02T03:51:14.081Z,101102.09
2023-02-02T03:52:11.082Z,101101.37
2023-02-02T03:53:11.073Z,101098.87
2023-02-02T03:54:11.087Z,101091.24
2023-02-02T03:55:11.083Z,101091.08
2023-02-02T03:56:11.079Z,101077.40
2023-02-02T03:57:11.075Z,101079.48
2023-02-02T03:58:11.082Z,101074.19
2023-02-02T03:59:11.073Z,101070.92
2023-02-02T04:00:11.065Z,101073.69
2023-02-02T04:01:13.071Z,101075.98
2023-02-02T04:02:11.062Z,101070.04
2023-02-02T04:03:11.124Z,101069.41
2023-02-02T04:04:11.088Z,101068.67
2023-02-02T04:05:11.064Z,101069.14
2023-02-02T04:06:11.057Z,101071.07
2023-02-02T04:07:11.071Z,101070.39
2023-02-02T04:08:11.070Z,101071.02
2023-02-02T04:09:11.058Z,101074.40
2023-02-02T04:10:11.066Z,101075.20
2023-02-02T04:11:13.073Z,101075.40
2023-02-02T04:12:11.064Z,101076.46
2023-02-02T04:13:11.062Z,101080.32
2023-02-02T04:14:11.064Z,101085.70
2023-02-02T04:15:11.059Z,101086.44
2023-02-02T04:16:11.103Z,101081.40
2023-02-02T04:17:11.064Z,101089.45
2023-02-02T04:18:11.077Z,101084.96
2023-02-02T04:19:11.070Z,101091.70
2023-02-02T04:20:11.075Z,101091.20
2023-02-02T04:21:11.067Z,101092.45
2023-02-02T04:22:11.068Z,101092.90
2023-02-02T04:23:11.086Z,101089.25
2023-02-02T04:24:13.065Z,101083.38
2023-02-02T04:25:11.066Z,101088.84
2023-02-02T04:26:11.077Z,101083.25
2023-02-02T04:27:11.063Z,101090.07
2023-02-02T04:28:11.061Z,101085.23
2023-02-02T04:29:11.066Z,101087.64
2023-02-02T04:30:11.063Z,101082.01
2023-02-02T04:31:11.159Z,101091.06
2023-02-02T04:32:11.065Z,101084.72
2023-02-02T04:33:11.064Z,101091.67
2023-02-02T04:34:11.064Z,101089.57
2023-02-02T04:35:11.064Z,101080.35
2023-02-02T04:36:11.066Z,101081.87
2023-02-02T04:37:11.064Z,101071.41
2023-02-02T04:38:11.072Z,101077.99
2023-02-02T04:39:12.074Z,101073.19
2023-02-02T04:40:11.062Z,101075.68
2023-02-02T04:41:11.064Z,101075.74
2023-02-02T04:42:11.068Z,101077.96
2023-02-02T04:43:11.065Z,101074.11
2023-02-02T04:44:14.068Z,101075.29
2023-02-02T04:45:11.076Z,101083.52
2023-02-02T04:46:11.157Z,101082.35
2023-02-02T04:47:11.072Z,101074.32
2023-02-02T04:48:11.072Z,101077.75
2023-02-02T04:49:11.068Z,101070.70
2023-02-02T04:50:11.062Z,101068.34
2023-02-02T04:51:14.073Z,101072.77
2023-02-02T04:52:11.071Z,101068.30
2023-02-02T04:53:11.069Z,101063.34
2023-02-02T04:54:11.076Z,101071.68
2023-02-02T04:55:11.078Z,101069.33
2023-02-02T04:56:12.072Z,101072.60
2023-02-02T04:57:11.072Z,101069.09
2023-02-02T04:58:11.074Z,101066.29
2023-02-02T04:59:11.060Z,101066.86
2023-02-02T05:00:11.068Z,101058.78
2023-02-02T05:01:15.125Z,101057.81
2023-02-02T05:02:11.064Z,101064.01
2023-02-02T05:03:11.069Z,101063.56
2023-02-02T05:04:11.108Z,101048.06
2023-02-02T05:05:13.071Z,101061.99
2023-02-02T05:06:11.086Z,101060.04
2023-02-02T05:07:11.068Z,101063.31
2023-02-02T05:08:12.110Z,101061.36
2023-02-02T05:09:11.079Z,101068.48
2023-02-02T05:10:11.103Z,101066.99
2023-02-02T05:11:12.071Z,101069.93
2023-02-02T05:12:11.070Z,101075.78
2023-02-02T05:13:11.069Z,101069.88
2023-02-02T05:14:11.065Z,101071.32
2023-02-02T05:15:11.073Z,101064.25
2023-02-02T05:16:11.096Z,101063.26
2023-02-02T05:17:11.068Z,101064.64
2023-02-02T05:18:11.074Z,101066.18
2023-02-02T05:19:11.076Z,101065.97
2023-02-02T05:20:11.069Z,101060.59
2023-02-02T05:21:11.070Z,101059.18
2023-02-02T05:22:11.070Z,101063.26
2023-02-02T05:23:11.074Z,101067.45
2023-02-02T05:24:11.067Z,101066.25
2023-02-02T05:25:11.078Z,101066.18
2023-02-02T05:26:15.068Z,101066.03
2023-02-02T05:27:11.076Z,101060.40
2023-02-02T05:28:11.078Z,101064.12
2023-02-02T05:29:11.068Z,101065.11
2023-02-02T05:30:11.076Z,101067.95
2023-02-02T05:31:11.209Z,101064.07
2023-02-02T05:32:11.081Z,101062.48
2023-02-02T05:33:11.079Z,101069.72
2023-02-02T05:34:11.079Z,101068.55
2023-02-02T05:35:11.101Z,101067.44
2023-02-02T05:36:11.078Z,101071.39
2023-02-02T05:37:11.085Z,101069.42
2023-02-02T05:38:11.067Z,101072.83
2023-02-02T05:39:11.081Z,101065.60
2023-02-02T05:40:11.084Z,101071.56
2023-02-02T05:41:11.067Z,101078.53
2023-02-02T05:42:11.068Z,101074.89
2023-02-02T05:43:11.077Z,101072.75
2023-02-02T05:44:12.113Z,101071.61
2023-02-02T05:45:11.074Z,101069.38
2023-02-02T05:46:11.138Z,101072.17
2023-02-02T05:47:11.069Z,101073.79
2023-02-02T05:48:13.071Z,101071.46
2023-02-02T05:49:14.085Z,101078.21
2023-02-02T05:50:11.071Z,101074.13
2023-02-02T05:51:18.074Z,101075.50
2023-02-02T05:52:15.073Z,101073.91
2023-02-02T05:53:12.069Z,101074.75
2023-02-02T05:54:11.076Z,101071.23
2023-02-02T05:55:11.077Z,101072.75
2023-02-02T05:56:11.071Z,101071.25
2023-02-02T05:57:11.067Z,101074.87
2023-02-02T05:58:11.070Z,101069.39
2023-02-02T05:59:11.093Z,101075.73
2023-02-02T06:00:11.074Z,101075.75
2023-02-02T06:01:11.089Z,101074.58
2023-02-02T06:02:11.097Z,101080.69
2023-02-02T06:03:11.216Z,101082.20
2023-02-02T06:04:11.133Z,101080.45
2023-02-02T06:05:11.084Z,101083.67
2023-02-02T06:06:11.079Z,101085.75
2023-02-02T06:07:11.072Z,101085.74
2023-02-02T06:08:11.079Z,101088.42
2023-02-02T06:09:11.071Z,101081.80
2023-02-02T06:10:11.076Z,101085.64
2023-02-02T06:11:13.120Z,101082.45
2023-02-02T06:12:11.069Z,101080.00
2023-02-02T06:13:11.088Z,101083.08
2023-02-02T06:14:11.126Z,101079.18
2023-02-02T06:15:11.068Z,101087.17
2023-02-02T06:16:11.097Z,101084.19
2023-02-02T06:17:11.081Z,101086.38
2023-02-02T06:18:11.076Z,101083.38
2023-02-02T06:19:11.075Z,101086.07
2023-02-02T06:20:11.082Z,101085.57
2023-02-02T06:21:11.081Z,101081.85
2023-02-02T06:22:11.068Z,101086.29
2023-02-02T06:23:11.077Z,101091.70
2023-02-02T06:24:11.082Z,101091.13
2023-02-02T06:25:11.081Z,101090.13
2023-02-02T06:26:12.081Z,101085.24
2023-02-02T06:27:11.076Z,101085.49
2023-02-02T06:28:11.071Z,101087.43
2023-02-02T06:29:13.079Z,101090.81
2023-02-02T06:30:11.075Z,101083.75
2023-02-02T06:31:11.308Z,101083.21
2023-02-02T06:32:11.146Z,101088.65
2023-02-02T06:33:11.079Z,101090.35
2023-02-02T06:34:12.073Z,101091.06
2023-02-02T06:35:11.076Z,101090.01
2023-02-02T06:36:11.081Z,101093.18
2023-02-02T06:37:11.109Z,101090.83
2023-02-02T06:38:11.075Z,101088.94
2023-02-02T06:39:11.080Z,101094.61
2023-02-02T06:40:11.089Z,101096.34
2023-02-02T06:41:11.074Z,101093.59
2023-02-02T06:42:20.740Z,101099.61
2023-02-02T06:43:13.087Z,101091.47
2023-02-02T06:44:11.071Z,101100.29
2023-02-02T06:45:11.104Z,101100.73
2023-02-02T06:46:11.105Z,101101.01
2023-02-02T06:47:11.084Z,101095.70
2023-02-02T06:48:14.104Z,101095.16
2023-02-02T06:49:11.077Z,101098.30
2023-02-02T06:50:11.071Z,101098.10
2023-02-02T06:51:11.101Z,101097.45
2023-02-02T06:52:11.075Z,101100.04
2023-02-02T06:53:11.071Z,101097.14
2023-02-02T06:54:11.078Z,101092.85
2023-02-02T06:55:11.079Z,101098.43
2023-02-02T06:56:12.071Z,101102.61
2023-02-02T06:57:11.078Z,101102.09
2023-02-02T06:58:11.076Z,101099.75
2023-02-02T06:59:11.079Z,101105.87
2023-02-02T07:00:11.095Z,101105.43
2023-02-02T07:01:11.135Z,101103.38
2023-02-02T07:02:12.063Z,101107.02
2023-02-02T07:03:11.066Z,101102.87
2023-02-02T07:04:11.060Z,101102.58
2023-02-02T07:05:11.056Z,101101.44
2023-02-02T07:06:16.091Z,101108.54
2023-02-02T07:07:11.062Z,101099.25
2023-02-02T07:08:11.061Z,101098.92
2023-02-02T07:09:11.068Z,101108.07
2023-02-02T07:11:09.464Z,101106.64
2023-02-02T07:11:16.324Z,101104.64
2023-02-02T07:12:11.062Z,101107.56
2023-02-02T07:13:11.064Z,101111.09
2023-02-02T07:14:11.063Z,101108.64
2023-02-02T07:15:11.060Z,101104.59
2023-02-02T07:16:11.094Z,101103.09
2023-02-02T07:17:11.061Z,101106.18
2023-02-02T07:18:11.057Z,101105.80
2023-02-02T07:19:11.075Z,101107.13
2023-02-02T07:20:11.061Z,101104.15
2023-02-02T07:21:15.058Z,101104.30
2023-02-02T07:22:11.060Z,101101.95
2023-02-02T07:23:11.069Z,101102.73
2023-02-02T07:24:11.060Z,101102.24
2023-02-02T07:25:11.061Z,101102.96
2023-02-02T07:26:11.062Z,101105.20
2023-02-02T07:27:11.059Z,101106.62
2023-02-02T07:28:11.061Z,101108.68
2023-02-02T07:29:12.064Z,101109.00
2023-02-02T07:30:11.059Z,101101.00
2023-02-02T07:31:19.097Z,101105.51
2023-02-02T07:32:11.070Z,101104.88
2023-02-02T07:33:11.061Z,101103.80
2023-02-02T07:34:11.066Z,101108.18
2023-02-02T07:35:11.073Z,101107.04
2023-02-02T07:36:11.068Z,101107.86
2023-02-02T07:37:11.074Z,101113.27
2023-02-02T07:38:11.071Z,101109.12
2023-02-02T07:39:11.067Z,101109.26
2023-02-02T07:40:13.062Z,101107.22
2023-02-02T07:41:11.067Z,101110.24
2023-02-02T07:42:14.063Z,101114.44
2023-02-02T07:43:11.063Z,101112.38
2023-02-02T07:44:14.064Z,101110.75
2023-02-02T07:45:26.947Z,101113.63
2023-02-02T07:46:13.193Z,101114.46
2023-02-02T07:47:11.070Z,101111.47
2023-02-02T07:48:11.072Z,101116.21
2023-02-02T07:49:12.061Z,101115.52
2023-02-02T07:50:11.065Z,101116.38
2023-02-02T07:51:12.071Z,101115.14
2023-02-02T07:52:11.061Z,101112.20
2023-02-02T07:53:11.065Z,101116.35
2023-02-02T07:54:11.072Z,101110.94
2023-02-02T07:55:14.724Z,101117.08
2023-02-02T07:56:18.081Z,101122.98
2023-02-02T07:57:11.082Z,101119.55
2023-02-02T07:58:11.065Z,101119.50
2023-02-02T07:59:12.065Z,101118.75
2023-02-02T08:00:11.064Z,101118.83
2023-02-02T08:01:11.071Z,101122.72
2023-02-02T08:02:11.144Z,101120.15
2023-02-02T08:03:12.135Z,101119.22
2023-02-02T08:04:11.066Z,101123.15
2023-02-02T08:05:11.066Z,101116.66
2023-02-02T08:06:16.089Z,101119.18
2023-02-02T08:07:11.069Z,101115.21
2023-02-02T08:08:11.063Z,101119.24
2023-02-02T08:09:11.067Z,101114.84
2023-02-02T08:10:11.069Z,101116.89
2023-02-02T08:11:11.072Z,101115.54
2023-02-02T08:12:11.066Z,101115.35
2023-02-02T08:13:11.068Z,101110.62
2023-02-02T08:14:12.070Z,101114.42
2023-02-02T08:15:11.069Z,101114.84
2023-02-02T08:16:11.081Z,101120.61
2023-02-02T08:17:11.065Z,101127.25
2023-02-02T08:18:11.067Z,101125.75
2023-02-02T08:19:11.079Z,101125.12
2023-02-02T08:20:11.065Z,101129.41
2023-02-02T08:21:11.067Z,101130.35
2023-02-02T08:22:11.076Z,101134.64
2023-02-02T08:23:14.088Z,101136.65
2023-02-02T08:24:11.072Z,101139.48
2023-02-02T08:25:11.076Z,101138.94
2023-02-02T08:26:15.067Z,101139.85
2023-02-02T08:27:11.071Z,101140.78
2023-02-02T08:28:11.076Z,101139.57
2023-02-02T08:29:11.070Z,101140.99
2023-02-02T08:30:11.077Z,101144.66
2023-02-02T08:31:11.121Z,101145.82
2023-02-02T08:32:11.068Z,101142.23
2023-02-02T08:33:11.072Z,101136.61
2023-02-02T08:34:11.088Z,101137.43
2023-02-02T08:35:11.066Z,101135.48
2023-02-02T08:36:15.070Z,101140.36
2023-02-02T08:37:11.074Z,101134.42
2023-02-02T08:38:11.082Z,101141.25
2023-02-02T08:39:12.070Z,101138.80
2023-02-02T08:40:11.093Z,101140.78
2023-02-02T08:41:11.077Z,101136.14
2023-02-02T08:42:11.069Z,101134.69
2023-02-02T08:43:11.071Z,101141.20
2023-02-02T08:44:11.705Z,101142.36
2023-02-02T08:46:02.799Z,101140.88
2023-02-02T08:46:14.148Z,101142.54
2023-02-02T08:47:11.134Z,101136.95
2023-02-02T08:48:12.662Z,101137.58
2023-02-02T08:49:14.074Z,101135.41
2023-02-02T08:50:11.080Z,101133.16
2023-02-02T08:51:11.066Z,101130.86
2023-02-02T08:52:11.071Z,101132.82
2023-02-02T08:53:11.078Z,101132.73
2023-02-02T08:54:11.077Z,101135.39
2023-02-02T08:55:11.079Z,101131.79
2023-02-02T08:56:18.086Z,101128.88
2023-02-02T08:57:11.072Z,101129.99
2023-02-02T08:58:11.068Z,101127.95
2023-02-02T08:59:11.069Z,101132.30
2023-02-02T09:00:11.076Z,101132.93
2023-02-02T09:01:19.174Z,101133.18
2023-02-02T09:02:13.099Z,101131.07
2023-02-02T09:03:11.080Z,101133.18
2023-02-02T09:04:15.067Z,101133.99
2023-02-02T09:05:11.091Z,101135.09
2023-02-02T09:06:11.078Z,101135.36
2023-02-02T09:07:11.088Z,101141.99
2023-02-02T09:08:11.105Z,101142.22
2023-02-02T09:09:13.100Z,101142.21
2023-02-02T09:10:11.072Z,101144.68
2023-02-02T09:11:17.076Z,101145.04
2023-02-02T09:12:11.091Z,101146.23
2023-02-02T09:13:11.078Z,101147.91
2023-02-02T09:14:11.068Z,101144.92
2023-02-02T09:15:11.073Z,101145.62
2023-02-02T09:16:11.108Z,101147.00
2023-02-02T09:17:11.072Z,101143.37
2023-02-02T09:18:11.069Z,101142.79
2023-02-02T09:19:11.088Z,101143.21
2023-02-02T09:20:11.074Z,101142.11
2023-02-02T09:21:11.086Z,101147.98
2023-02-02T09:22:11.078Z,101144.35
2023-02-02T09:23:11.073Z,101142.94
2023-02-02T09:24:11.096Z,101129.13
2023-02-02T09:25:11.076Z,101143.99
2023-02-02T09:26:15.075Z,101145.14
2023-02-02T09:27:11.076Z,101140.76
2023-02-02T09:28:11.078Z,101141.46
2023-02-02T09:29:12.072Z,101139.75
2023-02-02T09:30:11.071Z,101131.89
2023-02-02T09:31:11.180Z,101119.27
2023-02-02T09:32:11.151Z,101127.74
2023-02-02T09:33:11.074Z,101133.40
2023-02-02T09:34:11.084Z,101131.14
2023-02-02T09:35:11.074Z,101131.31
2023-02-02T09:36:14.153Z,101127.50
2023-02-02T09:37:11.077Z,101132.10
2023-02-02T09:38:11.087Z,101139.50
2023-02-02T09:39:11.071Z,101141.02
2023-02-02T09:40:17.087Z,101142.89
2023-02-02T09:41:22.084Z,101141.88
2023-02-02T09:42:19.094Z,101136.94
2023-02-02T09:43:22.074Z,101144.05
2023-02-02T09:44:19.072Z,101135.62
2023-02-02T09:45:19.075Z,101142.02
2023-02-02T09:46:19.157Z,101146.36
2023-02-02T09:47:19.082Z,101146.63
2023-02-02T09:48:22.070Z,101146.21
2023-02-02T09:49:14.070Z,101146.52
2023-02-02T09:50:22.087Z,101147.85
2023-02-02T09:51:18.092Z,101145.02
2023-02-02T09:52:18.081Z,101145.57
2023-02-02T09:53:17.087Z,101143.50
2023-02-02T09:54:22.073Z,101140.75
2023-02-02T09:55:19.076Z,101138.63
2023-02-02T09:56:17.079Z,101121.79
2023-02-02T09:57:19.079Z,101123.64
2023-02-02T09:58:21.078Z,101130.71
2023-02-02T09:59:20.908Z,101137.53
2023-02-02T10:00:19.129Z,101135.60
2023-02-02T10:01:16.214Z,101134.55
2023-02-02T10:02:19.061Z,101135.85
2023-02-02T10:03:22.065Z,101133.51
2023-02-02T10:04:16.171Z,101136.14
2023-02-02T10:05:20.064Z,101133.64
2023-02-02T10:06:22.072Z,101137.24
2023-02-02T10:07:18.059Z,101130.06
2023-02-02T10:08:23.028Z,101133.78
2023-02-02T10:09:21.068Z,101130.62
2023-02-02T10:10:22.073Z,101133.07
2023-02-02T10:11:19.065Z,101131.91
2023-02-02T10:12:19.070Z,101128.47
2023-02-02T10:13:17.070Z,101129.29
2023-02-02T10:14:19.171Z,101132.32
2023-02-02T10:15:23.549Z,101133.49
2023-02-02T10:16:19.192Z,101135.32
2023-02-02T10:17:19.063Z,101130.41
2023-02-02T10:18:19.069Z,101135.48
2023-02-02T10:19:14.070Z,101137.70
2023-02-02T10:20:19.142Z,101142.88
2023-02-02T10:21:19.067Z,101151.50
2023-02-02T10:22:19.067Z,101146.13
2023-02-02T10:23:19.073Z,101156.88
2023-02-02T10:24:19.075Z,101158.73
2023-02-02T10:25:14.061Z,101157.47
2023-02-02T10:26:19.136Z,101157.00
2023-02-02T10:27:15.076Z,101161.93
2023-02-02T10:28:18.065Z,101161.46
2023-02-02T10:29:19.064Z,101163.43
2023-02-02T10:30:19.074Z,101165.39
2023-02-02T10:31:19.173Z,101165.05
2023-02-02T10:32:22.069Z,101168.48
2023-02-02T10:33:19.063Z,101161.80
2023-02-02T10:34:22.067Z,101161.27
2023-02-02T10:35:19.065Z,101165.52
2023-02-02T10:36:19.078Z,101163.18
2023-02-02T10:37:19.067Z,101157.59
2023-02-02T10:38:22.067Z,101155.16
2023-02-02T10:39:22.064Z,101160.50
2023-02-02T10:40:19.071Z,101160.35
2023-02-02T10:41:22.073Z,101161.04
2023-02-02T10:42:22.067Z,101159.96
2023-02-02T10:43:26.070Z,101164.12
2023-02-02T10:44:19.064Z,101171.45
2023-02-02T10:45:15.061Z,101165.73
2023-02-02T10:46:20.128Z,101157.87
2023-02-02T10:47:16.086Z,101163.07
2023-02-02T10:48:16.093Z,101155.67
2023-02-02T10:49:22.063Z,101160.02
2023-02-02T10:50:19.067Z,101153.06
2023-02-02T10:51:19.073Z,101164.00
2023-02-02T10:52:20.084Z,101161.00
2023-02-02T10:53:13.076Z,101165.60
2023-02-02T10:54:19.073Z,101167.79
2023-02-02T10:55:21.074Z,101165.38
2023-02-02T10:56:12.067Z,101169.25
2023-02-02T10:57:11.066Z,101170.27
2023-02-02T10:58:22.073Z,101167.21
2023-02-02T10:59:19.081Z,101168.78
2023-02-02T11:00:22.614Z,101165.04
2023-02-02T11:01:11.086Z,101163.82
2023-02-02T11:02:20.771Z,101168.35
2023-02-02T11:03:13.049Z,101166.52
2023-02-02T11:04:15.069Z,101166.17
2023-02-02T11:05:22.068Z,101172.59
2023-02-02T11:06:15.072Z,101164.37
2023-02-02T11:07:11.068Z,101170.68
2023-02-02T11:08:22.065Z,101160.46
2023-02-02T11:09:12.067Z,101157.41
2023-02-02T11:10:11.072Z,101166.18
2023-02-02T11:11:19.106Z,101168.56
2023-02-02T11:12:19.067Z,101170.63
2023-02-02T11:13:14.075Z,101171.94
2023-02-02T11:14:16.083Z,101167.69
2023-02-02T11:15:19.073Z,101166.08
2023-02-02T11:16:19.171Z,101152.46
2023-02-02T11:17:19.073Z,101162.10
2023-02-02T11:18:19.078Z,101170.62
2023-02-02T11:19:22.067Z,101163.96
2023-02-02T11:20:19.070Z,101159.12
2023-02-02T11:21:19.067Z,101163.48
2023-02-02T11:22:19.070Z,101169.61
2023-02-02T11:23:17.077Z,101159.52
2023-02-02T11:24:19.082Z,101164.47